Time;durP1;ratioP1;P1;durP2;ratioP2;P2;SDS_P1;SDS_P2;PMS_P1;PMS_P2;Temp;Humidity;BMP_temperature;BMP_pressure;BME280_temperature;BME280_humidity;BME280_pressure;Samples;Min_cycle;Max_cycle;Signal;HPM_P1;HPM_P2
2022/06/17 00:02:03;;;;;;;7.10;5.38;;;;;;;;;;5044526;28;20111;-69
2022/06/17 00:04:29;;;;;;;7.18;4.88;;;;;;;;;;5054732;28;20130;-69
2022/06/17 00:07:02;;;;;;;10.07;4.80;;;;;;;;;;5029260;28;20040;-69
2022/06/17 00:09:29;;;;;;;5.78;4.80;;;;;;;;;;5045528;28;20500;-69
2022/06/17 00:11:55;;;;;;;6.72;4.75;;;;;;;;;;5047987;28;20133;-69
2022/06/17 00:14:26;;;;;;;7.82;4.90;;;;;;;;;;5029094;28;20494;-69
2022/06/17 00:16:52;;;;;;;6.45;4.50;;;;;;;;;;5049091;28;20478;-69
2022/06/17 00:19:18;;;;;;;4.90;4.30;;;;;;;;;;5023294;28;20506;-69
2022/06/17 00:21:46;;;;;;;7.40;4.72;;;;;;;;;;5024516;28;20045;-69
2022/06/17 00:24:16;;;;;;;7.07;4.83;;;;;;;;;;5024138;28;20124;-68
2022/06/17 00:26:42;;;;;;;6.70;5.00;;;;;;;;;;5025826;28;20818;-69
2022/06/17 00:29:10;;;;;;;9.32;5.68;;;;;;;;;;5026725;28;20037;-69
2022/06/17 00:31:36;;;;;;;6.50;5.07;;;;;;;;;;5022470;28;20052;-69
2022/06/17 00:34:02;;;;;;;7.45;5.13;;;;;;;;;;5025330;28;20056;-69
2022/06/17 00:36:28;;;;;;;9.43;6.38;;;;;;;;;;5030135;28;20406;-69
2022/06/17 00:38:54;;;;;;;6.88;5.22;;;;;;;;;;5042972;28;20091;-69
2022/06/17 00:41:27;;;;;;;9.00;5.28;;;;;;;;;;5048534;28;20049;-69
2022/06/17 00:43:53;;;;;;;9.75;5.72;;;;;;;;;;5049477;28;20068;-69
2022/06/17 00:46:26;;;;;;;7.20;5.18;;;;;;;;;;5049987;28;20052;-69
2022/06/17 00:49:01;;;;;;;8.93;4.80;;;;;;;;;;5049277;28;20087;-69
2022/06/17 00:51:29;;;;;;;7.03;4.72;;;;;;;;;;5032335;28;20041;-69
2022/06/17 00:54:01;;;;;;;8.63;5.38;;;;;;;;;;5050527;28;20057;-69
2022/06/17 00:56:32;;;;;;;7.32;5.70;;;;;;;;;;5032232;28;20049;-69
2022/06/17 00:59:09;;;;;;;8.00;5.47;;;;;;;;;;5050123;28;20278;-69
2022/06/17 01:01:38;;;;;;;11.25;6.00;;;;;;;;;;5048914;28;20703;-69
2022/06/17 01:04:05;;;;;;;19.02;7.93;;;;;;;;;;5049084;28;20497;-69
2022/06/17 01:06:35;;;;;;;14.52;6.75;;;;;;;;;;5049901;28;20083;-69
2022/06/17 01:12:05;;;;;;;12.63;6.20;;;;;;;;;;5026271;28;20135;-69
2022/06/17 01:14:32;;;;;;;11.98;6.75;;;;;;;;;;5028894;28;20073;-69
2022/06/17 01:16:58;;;;;;;10.98;6.88;;;;;;;;;;5030930;28;20077;-69
2022/06/17 01:19:28;;;;;;;8.38;5.82;;;;;;;;;;5029460;28;20484;-69
2022/06/17 01:22:01;;;;;;;9.48;5.47;;;;;;;;;;5029488;28;20049;-69
2022/06/17 01:24:27;;;;;;;10.35;6.35;;;;;;;;;;5029235;28;20049;-69
2022/06/17 01:26:53;;;;;;;8.80;5.65;;;;;;;;;;5029848;28;20058;-69
2022/06/17 01:29:19;;;;;;;9.77;6.13;;;;;;;;;;5029967;28;20037;-69
2022/06/17 01:31:50;;;;;;;8.73;5.80;;;;;;;;;;5029075;28;20319;-69
2022/06/17 01:34:17;;;;;;;9.25;5.90;;;;;;;;;;5029524;28;20138;-69
2022/06/17 01:36:44;;;;;;;8.27;6.00;;;;;;;;;;5030566;28;20049;-68
2022/06/17 01:39:13;;;;;;;10.38;5.93;;;;;;;;;;5029337;28;20053;-68
2022/06/17 01:41:39;;;;;;;8.77;5.82;;;;;;;;;;5030178;28;20045;-68
2022/06/17 01:44:12;;;;;;;14.88;6.80;;;;;;;;;;5029977;28;20072;-69
2022/06/17 01:46:44;;;;;;;7.78;5.80;;;;;;;;;;5028821;28;20061;-69
2022/06/17 01:49:15;;;;;;;7.85;5.82;;;;;;;;;;5012658;28;20057;-69
2022/06/17 01:51:43;;;;;;;8.77;5.55;;;;;;;;;;5030032;28;20083;-68
2022/06/17 01:54:12;;;;;;;12.98;6.78;;;;;;;;;;5028549;28;20046;-68
2022/06/17 01:56:40;;;;;;;11.15;7.00;;;;;;;;;;5027929;28;20046;-69
2022/06/17 01:59:26;;;;;;;9.90;6.18;;;;;;;;;;5030072;28;20101;-69
2022/06/17 02:01:55;;;;;;;14.25;6.95;;;;;;;;;;5018469;28;20045;-68
2022/06/17 02:04:23;;;;;;;15.48;7.35;;;;;;;;;;5028874;28;20486;-69
2022/06/17 02:06:56;;;;;;;17.42;7.32;;;;;;;;;;5028575;28;20081;-68
2022/06/17 02:09:22;;;;;;;21.13;9.45;;;;;;;;;;5028933;28;20111;-68
2022/06/17 02:11:49;;;;;;;10.27;6.20;;;;;;;;;;5028470;28;20104;-68
2022/06/17 02:14:15;;;;;;;12.40;7.88;;;;;;;;;;5029870;28;20055;-70
2022/06/17 02:16:46;;;;;;;17.42;9.05;;;;;;;;;;5029812;28;20116;-69
2022/06/17 02:19:12;;;;;;;22.13;9.38;;;;;;;;;;5034626;28;20068;-70
2022/06/17 02:22:00;;;;;;;19.77;9.30;;;;;;;;;;5031595;28;20120;-67
2022/06/17 02:24:27;;;;;;;15.85;8.65;;;;;;;;;;5031422;28;20045;-67
2022/06/17 02:26:53;;;;;;;15.50;8.40;;;;;;;;;;5049520;28;20069;-68
2022/06/17 02:29:20;;;;;;;25.05;10.13;;;;;;;;;;5049548;28;20095;-68
2022/06/17 02:31:46;;;;;;;18.88;9.13;;;;;;;;;;5031321;28;20151;-68
2022/06/17 02:34:13;;;;;;;16.17;8.40;;;;;;;;;;5031518;28;20059;-68
2022/06/17 02:36:45;;;;;;;23.33;9.70;;;;;;;;;;5031391;28;20137;-68
2022/06/17 02:39:15;;;;;;;13.02;7.97;;;;;;;;;;5031767;28;20041;-69
2022/06/17 02:41:42;;;;;;;13.05;8.07;;;;;;;;;;5049049;28;20041;-68
2022/06/17 02:44:20;;;;;;;23.20;9.82;;;;;;;;;;5031326;28;20049;-68
2022/06/17 02:46:47;;;;;;;17.90;8.88;;;;;;;;;;5025509;28;20060;-69
2022/06/17 02:49:19;;;;;;;34.22;12.27;;;;;;;;;;5031297;28;20048;-69
2022/06/17 02:51:45;;;;;;;18.63;9.45;;;;;;;;;;5048917;28;20446;-68
2022/06/17 02:54:15;;;;;;;18.88;9.65;;;;;;;;;;5031317;28;20048;-69
2022/06/17 02:56:44;;;;;;;39.13;14.10;;;;;;;;;;5030861;28;20037;-69
2022/06/17 02:59:19;;;;;;;46.55;13.45;;;;;;;;;;5049171;28;20044;-69
2022/06/17 03:01:45;;;;;;;27.73;11.32;;;;;;;;;;5031065;28;20049;-68
2022/06/17 03:04:18;;;;;;;17.85;10.30;;;;;;;;;;5049256;28;20040;-68
2022/06/17 03:06:46;;;;;;;30.05;12.43;;;;;;;;;;5018483;28;20192;-68
2022/06/17 03:09:31;;;;;;;21.60;10.88;;;;;;;;;;5052500;28;20087;-68
2022/06/17 03:12:17;;;;;;;23.65;10.82;;;;;;;;;;5035374;28;20084;-69
2022/06/17 03:15:00;;;;;;;17.75;10.65;;;;;;;;;;5052503;28;20052;-69
2022/06/17 03:17:26;;;;;;;24.10;12.00;;;;;;;;;;5035318;28;20045;-69
2022/06/17 03:19:57;;;;;;;18.52;9.70;;;;;;;;;;5052869;28;20069;-69
2022/06/17 03:22:24;;;;;;;26.52;11.25;;;;;;;;;;5052714;28;20041;-68
2022/06/17 03:24:58;;;;;;;18.25;10.63;;;;;;;;;;5034351;28;20055;-69
2022/06/17 03:27:32;;;;;;;40.92;13.75;;;;;;;;;;5035064;28;20111;-69
2022/06/17 03:29:59;;;;;;;19.38;10.68;;;;;;;;;;5052825;28;20041;-69
2022/06/17 03:32:29;;;;;;;49.70;18.17;;;;;;;;;;5034737;28;20049;-69
2022/06/17 03:34:56;;;;;;;39.55;14.68;;;;;;;;;;5052527;28;20544;-70
2022/06/17 03:37:24;;;;;;;37.55;12.77;;;;;;;;;;5034913;28;20037;-68
2022/06/17 03:40:13;;;;;;;67.13;20.15;;;;;;;;;;5068975;28;20088;-68
2022/06/17 03:42:54;;;;;;;41.15;15.20;;;;;;;;;;5063371;28;20173;-68
2022/06/17 03:45:25;;;;;;;31.45;12.32;;;;;;;;;;5071598;28;20397;-68
2022/06/17 03:47:58;;;;;;;44.67;15.18;;;;;;;;;;5071376;28;20037;-68
2022/06/17 03:50:27;;;;;;;28.70;12.90;;;;;;;;;;5053591;28;20109;-68
2022/06/17 03:52:52;;;;;;;;;;;;;;;;;;5071497;28;20159;-68
2022/06/17 03:55:19;;;;;;;27.38;12.52;;;;;;;;;;5053767;28;20407;-68
2022/06/17 03:57:47;;;;;;;36.22;14.25;;;;;;;;;;5071613;28;20151;-68
2022/06/17 04:00:20;;;;;;;23.98;11.50;;;;;;;;;;5071621;28;20040;-68
2022/06/17 04:02:47;;;;;;;33.08;12.98;;;;;;;;;;5071102;28;20416;-68
2022/06/17 04:05:15;;;;;;;26.20;12.15;;;;;;;;;;5071423;28;20048;-68
2022/06/17 04:07:41;;;;;;;22.47;11.23;;;;;;;;;;5070571;28;20094;-68
2022/06/17 04:10:09;;;;;;;18.80;10.45;;;;;;;;;;5053254;28;20049;-68
2022/06/17 04:12:36;;;;;;;55.75;14.48;;;;;;;;;;5052999;28;20048;-68
2022/06/17 04:15:12;;;;;;;27.65;10.90;;;;;;;;;;5053267;28;20056;-68
2022/06/17 04:17:40;;;;;;;43.15;13.20;;;;;;;;;;5052922;28;20045;-69
2022/06/17 04:20:25;;;;;;;20.90;10.93;;;;;;;;;;5053032;28;20056;-68
2022/06/17 04:22:53;;;;;;;17.15;9.95;;;;;;;;;;5070354;28;20045;-68
2022/06/17 04:25:23;;;;;;;26.88;11.25;;;;;;;;;;5052772;28;20102;-68
2022/06/17 04:28:01;;;;;;;53.72;14.63;;;;;;;;;;5070771;28;20040;-69
2022/06/17 04:30:29;;;;;;;34.60;13.23;;;;;;;;;;5070290;28;20049;-68
2022/06/17 04:32:59;;;;;;;16.63;10.60;;;;;;;;;;5036051;28;20048;-68
2022/06/17 04:35:25;;;;;;;21.27;11.75;;;;;;;;;;5070574;28;20044;-68
2022/06/17 04:37:51;;;;;;;19.58;11.63;;;;;;;;;;5070395;28;20045;-68
2022/06/17 04:40:26;;;;;;;38.53;15.13;;;;;;;;;;5052858;28;20043;-68
2022/06/17 04:42:53;;;;;;;32.33;14.95;;;;;;;;;;5052837;28;20149;-69
2022/06/17 04:45:23;;;;;;;39.78;14.70;;;;;;;;;;5070623;28;20124;-69
2022/06/17 04:47:49;;;;;;;15.60;10.80;;;;;;;;;;5052133;28;20048;-69
2022/06/17 04:50:17;;;;;;;29.10;13.25;;;;;;;;;;5052714;28;20041;-69
2022/06/17 04:52:44;;;;;;;17.00;11.73;;;;;;;;;;5069482;28;20091;-68
2022/06/17 04:55:32;;;;;;;27.48;13.80;;;;;;;;;;5052408;28;20123;-68
2022/06/17 04:57:58;;;;;;;42.67;15.77;;;;;;;;;;5070111;28;20083;-69
2022/06/17 05:00:25;;;;;;;16.38;11.07;;;;;;;;;;5052182;28;20048;-70
2022/06/17 05:02:51;;;;;;;15.13;11.32;;;;;;;;;;5052396;28;20484;-68
2022/06/17 05:05:22;;;;;;;58.58;19.48;;;;;;;;;;5042844;28;20378;-69
2022/06/17 05:07:50;;;;;;;35.97;14.02;;;;;;;;;;5050460;28;20049;-68
2022/06/17 05:10:19;;;;;;;28.87;13.27;;;;;;;;;;5050870;28;20049;-69
2022/06/17 05:12:45;;;;;;;;;;;;;;;;;;5050847;28;20053;-68
2022/06/17 05:15:16;;;;;;;23.48;10.55;;;;;;;;;;5050635;28;19944;-69
2022/06/17 05:17:42;;;;;;;113.13;29.15;;;;;;;;;;5032600;28;20056;-68
2022/06/17 05:20:11;;;;;;;32.28;14.15;;;;;;;;;;5032190;28;20493;-68
2022/06/17 05:22:39;;;;;;;14.05;9.90;;;;;;;;;;5032625;28;20113;-69
2022/06/17 05:25:07;;;;;;;67.85;22.63;;;;;;;;;;5050573;28;20044;-69
2022/06/17 05:27:34;;;;;;;39.78;16.83;;;;;;;;;;5049552;28;20076;-69
2022/06/17 05:30:00;;;;;;;49.53;18.38;;;;;;;;;;5032555;28;20263;-69
2022/06/17 05:32:26;;;;;;;26.98;15.32;;;;;;;;;;5032350;28;20045;-68
2022/06/17 05:34:52;;;;;;;29.10;14.82;;;;;;;;;;5031762;28;20044;-69
2022/06/17 05:37:18;;;;;;;48.90;19.70;;;;;;;;;;5050538;28;20048;-68
2022/06/17 05:39:44;;;;;;;29.88;16.42;;;;;;;;;;5049908;28;20041;-68
2022/06/17 05:42:11;;;;;;;20.83;11.55;;;;;;;;;;5025879;28;20068;-68
2022/06/17 05:44:40;;;;;;;23.67;13.70;;;;;;;;;;5025246;28;20053;-69
2022/06/17 05:47:06;;;;;;;24.80;13.25;;;;;;;;;;5050311;28;20091;-68
2022/06/17 05:49:33;;;;;;;16.23;10.98;;;;;;;;;;5042818;28;20041;-69
2022/06/17 05:51:59;;;;;;;14.00;10.40;;;;;;;;;;5069079;28;20048;-69
2022/06/17 05:54:25;;;;;;;18.58;11.52;;;;;;;;;;5051157;28;20469;-68
2022/06/17 05:56:51;;;;;;;31.42;14.35;;;;;;;;;;5050644;28;20055;-68
2022/06/17 05:59:17;;;;;;;19.30;12.25;;;;;;;;;;5068980;28;20396;-68
2022/06/17 06:01:44;;;;;;;37.97;16.70;;;;;;;;;;5068496;28;20055;-68
2022/06/17 06:04:10;;;;;;;22.52;14.68;;;;;;;;;;5068945;28;20047;-68
2022/06/17 06:06:36;;;;;;;49.28;19.52;;;;;;;;;;5068611;28;20089;-68
2022/06/17 06:09:02;;;;;;;31.67;15.13;;;;;;;;;;5068715;28;20052;-68
2022/06/17 06:11:29;;;;;;;18.98;11.70;;;;;;;;;;5068448;28;20041;-68
2022/06/17 06:13:55;;;;;;;43.40;20.70;;;;;;;;;;5068604;28;20231;-68
2022/06/17 06:16:21;;;;;;;20.08;11.70;;;;;;;;;;5051246;28;20393;-68
2022/06/17 06:18:49;;;;;;;14.93;10.25;;;;;;;;;;5068178;28;20045;-68
2022/06/17 06:21:15;;;;;;;42.70;19.25;;;;;;;;;;5068869;28;20074;-68
2022/06/17 06:23:42;;;;;;;41.88;16.48;;;;;;;;;;5068267;28;20040;-69
2022/06/17 06:26:10;;;;;;;16.95;11.30;;;;;;;;;;5069005;28;20045;-69
2022/06/17 06:28:36;;;;;;;18.15;12.85;;;;;;;;;;5068528;28;20063;-68
2022/06/17 06:31:14;;;;;;;24.48;13.23;;;;;;;;;;5068860;28;20037;-68
2022/06/17 06:33:41;;;;;;;30.85;15.02;;;;;;;;;;5068065;28;20088;-69
2022/06/17 06:36:07;;;;;;;16.38;10.80;;;;;;;;;;5068594;28;20052;-68
2022/06/17 06:38:34;;;;;;;28.08;11.70;;;;;;;;;;5034461;28;20052;-68
2022/06/17 06:41:00;;;;;;;24.70;13.73;;;;;;;;;;5071650;28;20489;-69
2022/06/17 06:43:26;;;;;;;17.63;10.98;;;;;;;;;;5072630;28;20053;-68
2022/06/17 06:45:53;;;;;;;17.48;10.35;;;;;;;;;;5054884;28;20041;-69
2022/06/17 06:48:21;;;;;;;18.50;11.13;;;;;;;;;;5054298;28;20052;-68
2022/06/17 06:50:47;;;;;;;22.33;11.95;;;;;;;;;;5037723;28;20044;-69
2022/06/17 06:53:13;;;;;;;38.55;16.67;;;;;;;;;;5054436;28;20048;-68
2022/06/17 06:55:39;;;;;;;23.73;11.05;;;;;;;;;;5072184;28;20500;-69
2022/06/17 06:58:13;;;;;;;23.48;12.45;;;;;;;;;;5072451;28;20041;-68
2022/06/17 07:00:40;;;;;;;35.85;14.32;;;;;;;;;;5054055;28;20045;-69
2022/06/17 07:03:06;;;;;;;19.13;10.10;;;;;;;;;;5053925;28;20052;-68
2022/06/17 07:05:33;;;;;;;36.15;14.63;;;;;;;;;;5072154;28;20481;-70
2022/06/17 07:07:59;;;;;;;18.83;11.00;;;;;;;;;;5072353;28;20040;-68
2022/06/17 07:10:27;;;;;;;17.23;9.35;;;;;;;;;;5072366;28;20076;-69
2022/06/17 07:12:54;;;;;;;21.65;11.02;;;;;;;;;;5072095;28;20052;-69
2022/06/17 07:15:20;;;;;;;10.88;8.50;;;;;;;;;;5072192;28;20056;-69
2022/06/17 07:17:58;;;;;;;17.73;9.02;;;;;;;;;;5071257;28;20136;-69
2022/06/17 07:20:24;;;;;;;16.20;10.18;;;;;;;;;;5022744;28;20049;-68
2022/06/17 07:22:51;;;;;;;72.10;26.38;;;;;;;;;;5024912;28;20053;-68
2022/06/17 07:25:17;;;;;;;32.15;13.73;;;;;;;;;;5026393;28;20053;-70
2022/06/17 07:27:44;;;;;;;12.38;8.25;;;;;;;;;;5033886;28;20049;-70
2022/06/17 07:30:15;;;;;;;19.33;8.55;;;;;;;;;;5031163;28;20092;-67
2022/06/17 07:32:41;;;;;;;61.33;16.98;;;;;;;;;;5031004;28;20060;-68
2022/06/17 07:35:07;;;;;;;11.63;8.27;;;;;;;;;;5031725;28;20042;-68
2022/06/17 07:40:18;;;;;;;12.32;7.35;;;;;;;;;;5027129;28;20474;-69
2022/06/17 07:42:44;;;;;;;15.98;7.95;;;;;;;;;;5032425;28;20054;-68
2022/06/17 07:45:12;;;;;;;12.15;7.43;;;;;;;;;;5031959;28;20051;-69
2022/06/17 07:47:39;;;;;;;10.93;7.22;;;;;;;;;;5032541;28;20033;-68
2022/06/17 07:50:07;;;;;;;30.47;10.37;;;;;;;;;;5026052;28;20055;-69
2022/06/17 07:52:33;;;;;;;12.05;7.32;;;;;;;;;;5025569;28;20056;-68
2022/06/17 07:54:59;;;;;;;8.60;6.45;;;;;;;;;;5033204;28;20403;-68
2022/06/17 07:57:25;;;;;;;16.67;7.72;;;;;;;;;;5028634;28;20091;-68
2022/06/17 07:59:51;;;;;;;12.13;7.13;;;;;;;;;;5023887;28;20100;-68
2022/06/17 08:02:17;;;;;;;10.30;7.85;;;;;;;;;;5066891;28;20045;-69
2022/06/17 08:04:43;;;;;;;42.22;11.40;;;;;;;;;;5051255;28;20041;-68
2022/06/17 08:07:10;;;;;;;13.57;7.00;;;;;;;;;;5050031;28;20083;-68
2022/06/17 08:09:36;;;;;;;10.35;5.85;;;;;;;;;;5049774;28;20491;-69
2022/06/17 08:12:07;;;;;;;11.73;7.00;;;;;;;;;;5051080;28;20056;-69
2022/06/17 08:14:35;;;;;;;23.13;9.00;;;;;;;;;;5034422;28;20162;-69
2022/06/17 08:17:01;;;;;;;22.48;9.15;;;;;;;;;;5022793;28;20056;-69
2022/06/17 08:19:27;;;;;;;12.88;7.13;;;;;;;;;;5033617;28;20135;-69
2022/06/17 08:21:53;;;;;;;8.15;6.05;;;;;;;;;;5034307;28;20057;-68
2022/06/17 08:24:19;;;;;;;15.60;9.00;;;;;;;;;;5049901;28;20056;-69
2022/06/17 08:26:45;;;;;;;8.93;6.03;;;;;;;;;;5049440;28;20063;-69
2022/06/17 08:29:11;;;;;;;10.70;7.53;;;;;;;;;;5047355;28;20033;-70
2022/06/17 08:31:37;;;;;;;14.25;8.07;;;;;;;;;;5027270;28;20047;-69
2022/06/17 08:34:03;;;;;;;8.60;5.95;;;;;;;;;;5048676;28;20088;-70
2022/06/17 08:36:29;;;;;;;27.42;9.95;;;;;;;;;;5045717;28;20045;-70
2022/06/17 08:39:04;;;;;;;7.53;5.65;;;;;;;;;;5012962;28;20055;-69
2022/06/17 08:41:31;;;;;;;17.90;7.68;;;;;;;;;;5025999;28;20393;-69
2022/06/17 08:44:14;;;;;;;19.23;8.13;;;;;;;;;;5043171;28;20532;-69
2022/06/17 08:46:40;;;;;;;15.15;7.72;;;;;;;;;;5056910;28;20493;-69
2022/06/17 08:49:09;;;;;;;12.80;6.55;;;;;;;;;;5045563;28;20043;-69
2022/06/17 08:51:44;;;;;;;20.52;7.55;;;;;;;;;;5045921;28;20041;-69
2022/06/17 08:54:16;;;;;;;16.45;6.32;;;;;;;;;;5044504;28;20041;-71
2022/06/17 08:57:01;;;;;;;24.08;8.25;;;;;;;;;;5013812;28;20049;-69
2022/06/17 08:59:36;;;;;;;10.90;6.60;;;;;;;;;;5032611;28;20045;-69
2022/06/17 09:02:19;;;;;;;7.78;4.75;;;;;;;;;;5050107;28;20129;-69
2022/06/17 09:04:48;;;;;;;14.20;5.38;;;;;;;;;;5050657;28;20053;-69
2022/06/17 09:07:13;;;;;;;7.05;4.63;;;;;;;;;;5033465;28;20041;-69
2022/06/17 09:09:42;;;;;;;12.55;4.88;;;;;;;;;;5032460;28;20545;-69
2022/06/17 09:12:12;;;;;;;8.38;5.07;;;;;;;;;;5032008;28;20041;-69
2022/06/17 09:14:37;;;;;;;8.98;4.57;;;;;;;;;;5050188;28;20090;-69
2022/06/17 09:17:07;;;;;;;9.15;3.90;;;;;;;;;;5050796;28;20044;-69
2022/06/17 09:19:34;;;;;;;7.15;4.50;;;;;;;;;;5032415;28;20049;-69
2022/06/17 09:22:16;;;;;;;6.28;4.38;;;;;;;;;;5050481;28;20489;-69
2022/06/17 09:24:43;;;;;;;8.52;4.72;;;;;;;;;;5032212;28;20535;-70
2022/06/17 09:27:13;;;;;;;9.20;5.78;;;;;;;;;;5032205;28;20045;-70
2022/06/17 09:29:45;;;;;;;19.67;7.03;;;;;;;;;;5043835;28;20051;-70
2022/06/17 09:32:14;;;;;;;10.00;4.72;;;;;;;;;;5050540;28;20056;-70
2022/06/17 09:34:44;;;;;;;6.65;3.90;;;;;;;;;;5032355;28;20110;-71
2022/06/17 09:37:28;;;;;;;8.52;3.83;;;;;;;;;;5049959;28;20053;-71
2022/06/17 09:39:57;;;;;;;6.22;3.88;;;;;;;;;;5050436;28;20052;-71
2022/06/17 09:42:29;;;;;;;7.50;4.70;;;;;;;;;;5031963;28;20049;-71
2022/06/17 09:45:11;;;;;;;6.75;4.00;;;;;;;;;;5016060;28;20264;-72
2022/06/17 09:47:39;;;;;;;11.63;5.25;;;;;;;;;;5051193;28;20040;-72
2022/06/17 09:50:05;;;;;;;;;;;;;;;;;;5069858;28;20048;-72
2022/06/17 09:52:36;;;;;;;7.13;3.83;;;;;;;;;;5051073;28;20003;-72
2022/06/17 09:55:08;;;;;;;11.20;4.10;;;;;;;;;;5025457;28;20045;-70
2022/06/17 09:57:39;;;;;;;11.75;5.43;;;;;;;;;;5031849;28;20045;-71
2022/06/17 10:00:07;;;;;;;33.22;9.43;;;;;;;;;;5050178;28;20098;-69
2022/06/17 10:02:36;;;;;;;17.98;4.82;;;;;;;;;;5032384;28;20481;-70
2022/06/17 10:05:11;;;;;;;6.13;3.90;;;;;;;;;;5049999;28;20460;-70
2022/06/17 10:07:43;;;;;;;7.82;4.97;;;;;;;;;;5049716;28;20120;-70
2022/06/17 10:10:23;;;;;;;8.65;4.03;;;;;;;;;;5031446;28;20095;-70
2022/06/17 10:13:07;;;;;;;9.90;4.65;;;;;;;;;;5031519;28;20060;-70
2022/06/17 10:15:39;;;;;;;6.30;4.82;;;;;;;;;;5049447;28;20123;-71
2022/06/17 10:18:31;;;;;;;10.57;4.40;;;;;;;;;;5049930;28;20057;-71
2022/06/17 10:21:12;;;;;;;8.82;4.18;;;;;;;;;;5045562;28;20413;-72
2022/06/17 10:23:50;;;;;;;5.18;3.63;;;;;;;;;;5031479;28;20513;-70
2022/06/17 10:26:22;;;;;;;10.75;5.35;;;;;;;;;;5049261;28;20049;-70
2022/06/17 10:28:48;;;;;;;12.85;5.18;;;;;;;;;;5031632;28;20672;-71
2022/06/17 10:31:20;;;;;;;8.10;4.57;;;;;;;;;;5031949;28;20049;-71
2022/06/17 10:33:46;;;;;;;6.07;3.40;;;;;;;;;;5031164;28;20509;-70
2022/06/17 10:36:12;;;;;;;4.78;3.58;;;;;;;;;;5049476;28;20045;-70
2022/06/17 10:38:43;;;;;;;6.88;3.45;;;;;;;;;;5048984;28;20064;-70
2022/06/17 10:41:10;;;;;;;5.97;3.60;;;;;;;;;;5049669;28;20409;-70
2022/06/17 10:43:44;;;;;;;5.22;3.92;;;;;;;;;;5031107;28;20049;-71
2022/06/17 10:46:22;;;;;;;8.60;4.18;;;;;;;;;;5031428;28;20056;-70
2022/06/17 10:49:12;;;;;;;5.43;3.75;;;;;;;;;;5035530;28;20044;-71
2022/06/17 10:51:39;;;;;;;9.85;3.47;;;;;;;;;;5050231;28;20060;-71
2022/06/17 10:54:06;;;;;;;10.05;3.97;;;;;;;;;;5049931;28;20128;-71
2022/06/17 10:56:36;;;;;;;7.10;3.93;;;;;;;;;;5033670;28;20084;-71
2022/06/17 10:59:09;;;;;;;7.13;4.20;;;;;;;;;;5068358;28;20279;-71
2022/06/17 11:01:56;;;;;;;6.90;4.40;;;;;;;;;;5050159;28;20124;-71
2022/06/17 11:04:36;;;;;;;6.82;4.00;;;;;;;;;;5068549;28;20119;-71
2022/06/17 11:07:16;;;;;;;6.13;3.75;;;;;;;;;;5050612;28;20041;-70
2022/06/17 11:10:08;;;;;;;6.38;3.97;;;;;;;;;;5049596;28;20056;-71
2022/06/17 11:12:36;;;;;;;11.60;4.35;;;;;;;;;;5033390;28;20092;-70
2022/06/17 11:15:05;;;;;;;15.70;6.05;;;;;;;;;;5050752;28;20049;-70
2022/06/17 11:17:31;;;;;;;9.38;5.07;;;;;;;;;;5050039;28;20044;-72
2022/06/17 11:20:00;;;;;;;8.23;4.40;;;;;;;;;;5067626;28;20059;-71
2022/06/17 11:22:37;;;;;;;12.38;4.70;;;;;;;;;;5067033;28;20484;-71
2022/06/17 11:25:06;;;;;;;12.93;5.10;;;;;;;;;;5068152;28;20094;-71
2022/06/17 11:27:36;;;;;;;8.85;4.53;;;;;;;;;;5053404;28;20480;-70
2022/06/17 11:30:21;;;;;;;6.63;4.50;;;;;;;;;;5054116;28;20044;-70
2022/06/17 11:32:47;;;;;;;12.10;4.22;;;;;;;;;;5030500;28;20052;-70
2022/06/17 11:35:18;;;;;;;11.07;5.15;;;;;;;;;;5035065;28;20489;-70
2022/06/17 11:37:46;;;;;;;13.10;5.38;;;;;;;;;;5033786;28;20551;-71
2022/06/17 11:40:21;;;;;;;9.30;4.13;;;;;;;;;;5035011;28;20080;-71
2022/06/17 11:42:56;;;;;;;10.38;4.85;;;;;;;;;;5034119;28;20091;-71
2022/06/17 11:45:32;;;;;;;11.43;4.32;;;;;;;;;;5034592;28;20120;-70
2022/06/17 11:48:01;;;;;;;7.00;4.60;;;;;;;;;;5052402;28;20044;-72
2022/06/17 11:50:32;;;;;;;17.90;5.22;;;;;;;;;;5051761;28;20055;-71
2022/06/17 11:53:04;;;;;;;10.73;5.07;;;;;;;;;;5033667;28;20055;-71
2022/06/17 11:55:31;;;;;;;8.27;3.97;;;;;;;;;;5034124;28;20057;-70
2022/06/17 11:57:58;;;;;;;10.07;4.00;;;;;;;;;;5049699;28;20042;-71
2022/06/17 12:00:24;;;;;;;8.15;3.63;;;;;;;;;;5036517;28;20044;-71
2022/06/17 12:03:08;;;;;;;17.50;3.88;;;;;;;;;;5017557;28;20370;-69
2022/06/17 12:05:36;;;;;;;8.18;4.00;;;;;;;;;;5033216;28;20037;-71
2022/06/17 12:08:08;;;;;;;15.88;5.03;;;;;;;;;;5034380;28;20060;-70
2022/06/17 12:10:47;;;;;;;8.02;3.47;;;;;;;;;;5057055;28;20044;-69
2022/06/17 12:13:31;;;;;;;42.30;10.02;;;;;;;;;;5071160;28;20087;-69
2022/06/17 12:16:14;;;;;;;6.00;3.58;;;;;;;;;;5071005;28;20399;-69
2022/06/17 12:18:59;;;;;;;25.83;7.13;;;;;;;;;;5035497;28;20095;-69
2022/06/17 12:21:37;;;;;;;25.70;7.10;;;;;;;;;;5052493;28;20417;-69
2022/06/17 12:24:03;;;;;;;9.70;4.72;;;;;;;;;;5053020;28;20049;-69
2022/06/17 12:26:33;;;;;;;5.65;3.47;;;;;;;;;;5070723;28;20455;-70
2022/06/17 12:29:02;;;;;;;7.10;3.38;;;;;;;;;;5070994;28;20110;-70
2022/06/17 12:31:31;;;;;;;12.95;5.35;;;;;;;;;;5052651;28;20041;-69
2022/06/17 12:34:00;;;;;;;11.85;4.30;;;;;;;;;;5052818;28;20040;-70
2022/06/17 12:36:30;;;;;;;6.03;3.90;;;;;;;;;;5026797;28;20128;-69
2022/06/17 12:39:02;;;;;;;4.80;3.40;;;;;;;;;;5017041;28;20136;-70
2022/06/17 12:41:33;;;;;;;15.90;5.40;;;;;;;;;;5051229;28;20091;-69
2022/06/17 12:44:10;;;;;;;9.75;4.07;;;;;;;;;;5051619;28;20120;-70
2022/06/17 12:46:40;;;;;;;8.82;4.00;;;;;;;;;;5033150;28;20063;-70
2022/06/17 12:55:12;;;;;;;14.68;5.93;;;;;;;;;;5033202;28;20056;-70
2022/06/17 12:58:02;;;;;;;5.65;3.83;;;;;;;;;;5032943;28;20049;-70
2022/06/17 13:00:41;;;;;;;15.48;5.18;;;;;;;;;;5050868;28;20049;-70
2022/06/17 13:03:17;;;;;;;6.07;3.90;;;;;;;;;;5033315;28;20049;-70
2022/06/17 13:05:45;;;;;;;10.50;4.15;;;;;;;;;;5032323;28;20048;-70
2022/06/17 13:08:29;;;;;;;7.80;3.53;;;;;;;;;;5033073;28;20127;-70
2022/06/17 13:11:14;;;;;;;5.88;3.30;;;;;;;;;;5032904;28;20358;-70
2022/06/17 13:13:46;;;;;;;29.67;10.73;;;;;;;;;;5032643;28;20047;-70
2022/06/17 13:16:18;;;;;;;12.80;3.88;;;;;;;;;;5050601;28;20509;-70
2022/06/17 13:18:47;;;;;;;43.42;12.70;;;;;;;;;;5049746;28;20041;-70
2022/06/17 13:21:22;;;;;;;5.35;3.10;;;;;;;;;;5032966;28;20402;-70
2022/06/17 13:23:52;;;;;;;9.52;4.63;;;;;;;;;;5051036;28;20052;-70
2022/06/17 13:26:21;;;;;;;10.85;4.20;;;;;;;;;;5051771;28;20040;-70
2022/06/17 13:28:54;;;;;;;14.77;8.57;;;;;;;;;;5051269;28;20056;-70
2022/06/17 13:31:24;;;;;;;5.60;3.38;;;;;;;;;;5034574;28;20059;-70
2022/06/17 13:34:03;;;;;;;5.40;3.28;;;;;;;;;;5028068;28;20081;-71
2022/06/17 13:36:35;;;;;;;11.65;3.40;;;;;;;;;;5027595;28;20181;-69
2022/06/17 13:39:12;;;;;;;4.95;2.92;;;;;;;;;;5011656;28;20052;-70
2022/06/17 13:41:45;;;;;;;8.60;3.53;;;;;;;;;;5046799;28;20044;-70
2022/06/17 13:44:14;;;;;;;7.18;3.17;;;;;;;;;;5050643;28;20451;-70
2022/06/17 13:46:53;;;;;;;4.78;3.47;;;;;;;;;;5049900;28;20044;-70
2022/06/17 13:49:31;;;;;;;28.90;8.50;;;;;;;;;;5025408;28;20064;-70
2022/06/17 13:52:09;;;;;;;31.23;9.95;;;;;;;;;;5032567;28;20048;-70
2022/06/17 13:54:38;;;;;;;8.52;4.30;;;;;;;;;;5030815;28;20128;-70
2022/06/17 13:57:17;;;;;;;6.00;3.42;;;;;;;;;;5046518;28;20036;-69
2022/06/17 13:59:49;;;;;;;6.63;3.95;;;;;;;;;;5044411;28;20136;-70
2022/06/17 14:02:17;;;;;;;6.53;3.80;;;;;;;;;;5045958;28;20107;-70
2022/06/17 14:05:00;;;;;;;6.25;3.42;;;;;;;;;;5045294;28;20548;-69
2022/06/17 14:07:45;;;;;;;7.20;3.20;;;;;;;;;;5027212;28;20107;-70
2022/06/17 14:10:26;;;;;;;10.05;3.95;;;;;;;;;;5065199;28;20044;-70
2022/06/17 14:12:52;;;;;;;6.88;3.15;;;;;;;;;;5050536;28;20095;-71
2022/06/17 14:15:22;;;;;;;21.13;7.63;;;;;;;;;;5030296;28;20095;-71
2022/06/17 14:17:53;;;;;;;20.13;7.32;;;;;;;;;;5045332;28;20037;-71
2022/06/17 14:20:25;;;;;;;5.97;3.17;;;;;;;;;;5068157;28;20405;-71
2022/06/17 14:23:02;;;;;;;12.63;3.67;;;;;;;;;;5068528;28;20056;-71
2022/06/17 14:25:44;;;;;;;9.35;4.10;;;;;;;;;;5035280;28;20629;-71
2022/06/17 14:28:29;;;;;;;5.70;3.42;;;;;;;;;;5049862;28;20444;-70
2022/06/17 14:31:09;;;;;;;5.05;2.97;;;;;;;;;;5031087;28;20044;-70
2022/06/17 14:33:53;;;;;;;7.00;3.10;;;;;;;;;;5044947;28;20091;-70
2022/06/17 14:36:39;;;;;;;7.82;3.42;;;;;;;;;;5031902;28;20049;-70
2022/06/17 14:39:09;;;;;;;5.85;2.95;;;;;;;;;;5031643;28;20558;-70
2022/06/17 14:44:26;;;;;;;6.20;3.10;;;;;;;;;;5051114;28;20435;-70
2022/06/17 14:47:10;;;;;;;5.78;3.40;;;;;;;;;;5068268;28;20052;-70
2022/06/17 14:49:36;;;;;;;24.73;7.57;;;;;;;;;;5068312;28;20412;-70
2022/06/17 14:52:19;;;;;;;5.88;3.20;;;;;;;;;;5068542;28;20050;-70
2022/06/17 14:54:45;;;;;;;5.70;3.25;;;;;;;;;;5050419;28;20121;-70
2022/06/17 14:57:19;;;;;;;10.48;3.55;;;;;;;;;;5034165;28;20485;-72
2022/06/17 14:59:47;;;;;;;5.90;3.75;;;;;;;;;;5067908;28;20483;-71
2022/06/17 15:02:18;;;;;;;4.32;3.03;;;;;;;;;;5071608;28;20055;-70
2022/06/17 15:04:55;;;;;;;4.55;2.80;;;;;;;;;;5071589;28;20045;-71
2022/06/17 15:07:21;;;;;;;5.07;2.83;;;;;;;;;;5038178;28;20131;-71